sensor_id;sensor_type;location;lat;lon;timestamp;P1;durP1;ratioP1;P2;durP2;ratioP2
11139;SDS011;5624;49.388;11.350;2023-03-03T00:02:17;22.37;;;11.20;;
11139;SDS011;5624;49.388;11.350;2023-03-03T00:04:43;23.87;;;13.70;;
11139;SDS011;5624;49.388;11.350;2023-03-03T00:07:09;22.60;;;13.33;;
11139;SDS011;5624;49.388;11.350;2023-03-03T00:09:35;21.33;;;12.93;;
11139;SDS011;5624;49.388;11.350;2023-03-03T00:12:01;20.77;;;11.90;;
11139;SDS011;5624;49.388;11.350;2023-03-03T00:14:49;22.27;;;12.90;;
11139;SDS011;5624;49.388;11.350;2023-03-03T00:17:18;22.93;;;13.70;;
11139;SDS011;5624;49.388;11.350;2023-03-03T00:19:47;22.07;;;12.63;;
11139;SDS011;5624;49.388;11.350;2023-03-03T00:22:15;22.50;;;12.43;;
11139;SDS011;5624;49.388;11.350;2023-03-03T00:24:52;20.93;;;12.77;;
11139;SDS011;5624;49.388;11.350;2023-03-03T00:29:47;20.43;;;12.67;;
11139;SDS011;5624;49.388;11.350;2023-03-03T00:32:21;21.20;;;12.70;;
11139;SDS011;5624;49.388;11.350;2023-03-03T00:38:13;19.27;;;12.80;;
11139;SDS011;5624;49.388;11.350;2023-03-03T00:40:43;22.53;;;13.73;;
11139;SDS011;5624;49.388;11.350;2023-03-03T00:43:14;21.70;;;13.07;;
11139;SDS011;5624;49.388;11.350;2023-03-03T00:45:42;21.13;;;12.83;;
11139;SDS011;5624;49.388;11.350;2023-03-03T00:51:00;25.17;;;12.97;;
11139;SDS011;5624;49.388;11.350;2023-03-03T00:53:34;21.97;;;13.43;;
11139;SDS011;5624;49.388;11.350;2023-03-03T00:56:00;21.53;;;12.70;;
11139;SDS011;5624;49.388;11.350;2023-03-03T00:58:26;24.97;;;13.37;;
11139;SDS011;5624;49.388;11.350;2023-03-03T01:00:52;23.97;;;13.13;;
11139;SDS011;5624;49.388;11.350;2023-03-03T01:03:22;24.97;;;13.57;;
11139;SDS011;5624;49.388;11.350;2023-03-03T01:05:49;22.93;;;13.03;;
11139;SDS011;5624;49.388;11.350;2023-03-03T01:08:16;22.37;;;13.50;;
11139;SDS011;5624;49.388;11.350;2023-03-03T01:10:45;21.40;;;13.47;;
11139;SDS011;5624;49.388;11.350;2023-03-03T01:13:17;21.33;;;13.13;;
11139;SDS011;5624;49.388;11.350;2023-03-03T01:15:47;23.10;;;13.43;;
11139;SDS011;5624;49.388;11.350;2023-03-03T01:18:13;24.27;;;12.07;;
11139;SDS011;5624;49.388;11.350;2023-03-03T01:20:39;18.73;;;11.93;;
11139;SDS011;5624;49.388;11.350;2023-03-03T01:23:05;23.20;;;12.33;;
11139;SDS011;5624;49.388;11.350;2023-03-03T01:25:31;20.67;;;12.87;;
11139;SDS011;5624;49.388;11.350;2023-03-03T01:27:57;24.30;;;12.67;;
11139;SDS011;5624;49.388;11.350;2023-03-03T01:30:23;17.60;;;11.83;;
11139;SDS011;5624;49.388;11.350;2023-03-03T01:32:49;23.90;;;12.20;;
11139;SDS011;5624;49.388;11.350;2023-03-03T01:35:16;23.93;;;12.23;;
11139;SDS011;5624;49.388;11.350;2023-03-03T01:37:42;20.20;;;12.33;;
11139;SDS011;5624;49.388;11.350;2023-03-03T01:40:11;22.60;;;13.30;;
11139;SDS011;5624;49.388;11.350;2023-03-03T01:42:47;22.17;;;12.50;;
11139;SDS011;5624;49.388;11.350;2023-03-03T01:45:23;18.47;;;11.37;;
11139;SDS011;5624;49.388;11.350;2023-03-03T01:48:36;19.63;;;12.03;;
11139;SDS011;5624;49.388;11.350;2023-03-03T01:50:49;18.57;;;11.77;;
11139;SDS011;5624;49.388;11.350;2023-03-03T01:53:21;22.17;;;16.00;;
11139;SDS011;5624;49.388;11.350;2023-03-03T01:55:52;21.47;;;14.87;;
11139;SDS011;5624;49.388;11.350;2023-03-03T01:58:20;24.83;;;15.80;;
11139;SDS011;5624;49.388;11.350;2023-03-03T02:00:52;21.37;;;14.37;;
11139;SDS011;5624;49.388;11.350;2023-03-03T02:03:23;20.73;;;15.50;;
11139;SDS011;5624;49.388;11.350;2023-03-03T02:05:49;19.13;;;11.23;;
11139;SDS011;5624;49.388;11.350;2023-03-03T02:08:19;19.80;;;11.77;;
11139;SDS011;5624;49.388;11.350;2023-03-03T02:10:48;19.70;;;12.40;;
11139;SDS011;5624;49.388;11.350;2023-03-03T02:13:15;21.43;;;12.00;;
11139;SDS011;5624;49.388;11.350;2023-03-03T02:15:41;20.70;;;11.10;;
11139;SDS011;5624;49.388;11.350;2023-03-03T02:18:08;18.13;;;12.00;;
11139;SDS011;5624;49.388;11.350;2023-03-03T02:26:23;23.30;;;12.23;;
11139;SDS011;5624;49.388;11.350;2023-03-03T02:28:50;22.17;;;12.37;;
11139;SDS011;5624;49.388;11.350;2023-03-03T02:31:17;19.70;;;11.87;;
11139;SDS011;5624;49.388;11.350;2023-03-03T02:33:47;21.43;;;12.60;;
11139;SDS011;5624;49.388;11.350;2023-03-03T02:36:24;21.17;;;13.17;;
11139;SDS011;5624;49.388;11.350;2023-03-03T02:44:21;22.60;;;12.20;;
11139;SDS011;5624;49.388;11.350;2023-03-03T02:46:50;19.43;;;12.80;;
11139;SDS011;5624;49.388;11.350;2023-03-03T02:49:17;21.63;;;12.57;;
11139;SDS011;5624;49.388;11.350;2023-03-03T02:51:44;20.83;;;12.63;;
11139;SDS011;5624;49.388;11.350;2023-03-03T02:54:11;21.83;;;11.93;;
11139;SDS011;5624;49.388;11.350;2023-03-03T02:56:37;21.87;;;12.43;;
11139;SDS011;5624;49.388;11.350;2023-03-03T02:59:03;19.50;;;10.97;;
11139;SDS011;5624;49.388;11.350;2023-03-03T03:01:29;20.70;;;12.43;;
11139;SDS011;5624;49.388;11.350;2023-03-03T03:03:56;19.17;;;11.13;;
11139;SDS011;5624;49.388;11.350;2023-03-03T03:06:22;16.30;;;10.20;;
11139;SDS011;5624;49.388;11.350;2023-03-03T03:08:47;20.63;;;11.83;;
11139;SDS011;5624;49.388;11.350;2023-03-03T03:11:13;20.67;;;11.00;;
11139;SDS011;5624;49.388;11.350;2023-03-03T03:13:39;16.63;;;10.70;;
11139;SDS011;5624;49.388;11.350;2023-03-03T03:16:04;18.53;;;11.93;;
11139;SDS011;5624;49.388;11.350;2023-03-03T03:18:30;19.87;;;11.70;;
11139;SDS011;5624;49.388;11.350;2023-03-03T03:20:56;19.23;;;11.93;;
11139;SDS011;5624;49.388;11.350;2023-03-03T03:23:21;20.43;;;12.03;;
11139;SDS011;5624;49.388;11.350;2023-03-03T03:25:47;20.53;;;11.53;;
11139;SDS011;5624;49.388;11.350;2023-03-03T03:28:14;18.07;;;10.90;;
11139;SDS011;5624;49.388;11.350;2023-03-03T03:30:40;17.50;;;11.67;;
11139;SDS011;5624;49.388;11.350;2023-03-03T03:33:06;18.80;;;11.23;;
11139;SDS011;5624;49.388;11.350;2023-03-03T03:35:33;19.87;;;12.07;;
11139;SDS011;5624;49.388;11.350;2023-03-03T03:37:59;20.97;;;12.03;;
11139;SDS011;5624;49.388;11.350;2023-03-03T03:40:25;23.97;;;14.97;;
11139;SDS011;5624;49.388;11.350;2023-03-03T03:42:51;20.83;;;14.93;;
11139;SDS011;5624;49.388;11.350;2023-03-03T03:45:17;22.60;;;11.70;;
11139;SDS011;5624;49.388;11.350;2023-03-03T03:47:43;19.70;;;11.70;;
11139;SDS011;5624;49.388;11.350;2023-03-03T03:50:09;18.73;;;11.20;;
11139;SDS011;5624;49.388;11.350;2023-03-03T03:52:36;25.00;;;13.20;;
11139;SDS011;5624;49.388;11.350;2023-03-03T03:55:02;21.97;;;12.33;;
11139;SDS011;5624;49.388;11.350;2023-03-03T03:57:28;21.07;;;11.97;;
11139;SDS011;5624;49.388;11.350;2023-03-03T03:59:53;24.43;;;12.83;;
11139;SDS011;5624;49.388;11.350;2023-03-03T04:02:19;21.87;;;11.53;;
11139;SDS011;5624;49.388;11.350;2023-03-03T04:04:44;23.87;;;13.37;;
11139;SDS011;5624;49.388;11.350;2023-03-03T04:07:10;24.43;;;13.13;;
11139;SDS011;5624;49.388;11.350;2023-03-03T04:09:36;24.03;;;12.70;;
11139;SDS011;5624;49.388;11.350;2023-03-03T04:12:02;22.03;;;15.83;;
11139;SDS011;5624;49.388;11.350;2023-03-03T04:14:28;21.33;;;12.53;;
11139;SDS011;5624;49.388;11.350;2023-03-03T04:16:54;19.27;;;11.87;;
11139;SDS011;5624;49.388;11.350;2023-03-03T04:19:20;25.43;;;15.90;;
11139;SDS011;5624;49.388;11.350;2023-03-03T04:21:45;21.23;;;12.20;;
11139;SDS011;5624;49.388;11.350;2023-03-03T04:24:11;23.03;;;13.43;;
11139;SDS011;5624;49.388;11.350;2023-03-03T04:26:37;22.63;;;12.47;;
11139;SDS011;5624;49.388;11.350;2023-03-03T04:29:02;22.47;;;13.90;;
11139;SDS011;5624;49.388;11.350;2023-03-03T04:31:28;24.93;;;13.33;;
11139;SDS011;5624;49.388;11.350;2023-03-03T04:33:53;23.60;;;17.73;;
11139;SDS011;5624;49.388;11.350;2023-03-03T04:36:19;26.63;;;17.27;;
11139;SDS011;5624;49.388;11.350;2023-03-03T04:38:45;25.13;;;17.50;;
11139;SDS011;5624;49.388;11.350;2023-03-03T04:41:11;31.00;;;18.63;;
11139;SDS011;5624;49.388;11.350;2023-03-03T04:43:37;24.50;;;17.90;;
11139;SDS011;5624;49.388;11.350;2023-03-03T04:46:03;27.60;;;18.30;;
11139;SDS011;5624;49.388;11.350;2023-03-03T04:48:28;28.40;;;19.50;;
11139;SDS011;5624;49.388;11.350;2023-03-03T04:50:54;30.93;;;19.07;;
11139;SDS011;5624;49.388;11.350;2023-03-03T04:53:20;24.97;;;18.50;;
11139;SDS011;5624;49.388;11.350;2023-03-03T04:55:45;22.97;;;13.17;;
11139;SDS011;5624;49.388;11.350;2023-03-03T04:58:13;24.13;;;13.27;;
11139;SDS011;5624;49.388;11.350;2023-03-03T05:00:39;24.00;;;13.80;;
11139;SDS011;5624;49.388;11.350;2023-03-03T05:03:05;24.07;;;13.43;;
11139;SDS011;5624;49.388;11.350;2023-03-03T05:05:31;24.50;;;13.17;;
11139;SDS011;5624;49.388;11.350;2023-03-03T05:07:56;24.50;;;15.40;;
11139;SDS011;5624;49.388;11.350;2023-03-03T05:10:22;26.10;;;14.33;;
11139;SDS011;5624;49.388;11.350;2023-03-03T05:12:47;25.40;;;14.23;;
11139;SDS011;5624;49.388;11.350;2023-03-03T05:15:13;24.47;;;13.60;;
11139;SDS011;5624;49.388;11.350;2023-03-03T05:17:39;22.80;;;15.03;;
11139;SDS011;5624;49.388;11.350;2023-03-03T05:20:05;30.27;;;16.40;;
11139;SDS011;5624;49.388;11.350;2023-03-03T05:22:32;23.77;;;13.80;;
11139;SDS011;5624;49.388;11.350;2023-03-03T05:24:58;23.83;;;14.47;;
11139;SDS011;5624;49.388;11.350;2023-03-03T05:27:23;26.13;;;14.43;;
11139;SDS011;5624;49.388;11.350;2023-03-03T05:29:49;24.53;;;14.67;;
11139;SDS011;5624;49.388;11.350;2023-03-03T05:32:15;24.73;;;14.97;;
11139;SDS011;5624;49.388;11.350;2023-03-03T05:34:40;22.63;;;14.43;;
11139;SDS011;5624;49.388;11.350;2023-03-03T05:37:06;25.67;;;14.53;;
11139;SDS011;5624;49.388;11.350;2023-03-03T05:39:32;28.57;;;14.33;;
11139;SDS011;5624;49.388;11.350;2023-03-03T05:41:59;24.60;;;14.10;;
11139;SDS011;5624;49.388;11.350;2023-03-03T05:44:25;27.80;;;18.80;;
11139;SDS011;5624;49.388;11.350;2023-03-03T05:46:51;30.27;;;19.03;;
11139;SDS011;5624;49.388;11.350;2023-03-03T05:49:16;27.33;;;19.67;;
11139;SDS011;5624;49.388;11.350;2023-03-03T05:51:42;29.60;;;20.57;;
11139;SDS011;5624;49.388;11.350;2023-03-03T05:54:08;26.10;;;18.43;;
11139;SDS011;5624;49.388;11.350;2023-03-03T05:56:33;28.43;;;18.60;;
11139;SDS011;5624;49.388;11.350;2023-03-03T05:58:59;32.13;;;18.90;;
11139;SDS011;5624;49.388;11.350;2023-03-03T06:01:25;27.63;;;19.70;;
11139;SDS011;5624;49.388;11.350;2023-03-03T06:03:51;28.10;;;18.20;;
11139;SDS011;5624;49.388;11.350;2023-03-03T06:06:17;24.83;;;14.60;;
11139;SDS011;5624;49.388;11.350;2023-03-03T06:08:43;32.83;;;20.23;;
11139;SDS011;5624;49.388;11.350;2023-03-03T06:11:09;27.80;;;20.37;;
11139;SDS011;5624;49.388;11.350;2023-03-03T06:13:35;31.30;;;19.80;;
11139;SDS011;5624;49.388;11.350;2023-03-03T06:16:00;30.20;;;19.17;;
11139;SDS011;5624;49.388;11.350;2023-03-03T06:18:26;22.37;;;13.17;;
11139;SDS011;5624;49.388;11.350;2023-03-03T06:20:52;28.13;;;14.47;;
11139;SDS011;5624;49.388;11.350;2023-03-03T06:23:19;21.00;;;13.20;;
11139;SDS011;5624;49.388;11.350;2023-03-03T06:25:45;22.13;;;12.87;;
11139;SDS011;5624;49.388;11.350;2023-03-03T06:28:11;22.57;;;13.47;;
11139;SDS011;5624;49.388;11.350;2023-03-03T06:30:37;24.47;;;13.90;;
11139;SDS011;5624;49.388;11.350;2023-03-03T06:33:03;22.57;;;13.80;;
11139;SDS011;5624;49.388;11.350;2023-03-03T06:35:29;22.40;;;12.70;;
11139;SDS011;5624;49.388;11.350;2023-03-03T06:37:54;19.60;;;12.53;;
11139;SDS011;5624;49.388;11.350;2023-03-03T06:40:20;22.23;;;12.37;;
11139;SDS011;5624;49.388;11.350;2023-03-03T06:42:46;26.07;;;13.73;;
11139;SDS011;5624;49.388;11.350;2023-03-03T06:45:12;19.43;;;11.67;;
11139;SDS011;5624;49.388;11.350;2023-03-03T06:47:38;26.37;;;13.60;;
11139;SDS011;5624;49.388;11.350;2023-03-03T06:50:04;22.37;;;13.03;;
11139;SDS011;5624;49.388;11.350;2023-03-03T06:52:32;22.33;;;13.40;;
11139;SDS011;5624;49.388;11.350;2023-03-03T06:54:59;26.93;;;12.93;;
11139;SDS011;5624;49.388;11.350;2023-03-03T06:57:30;25.97;;;13.43;;
11139;SDS011;5624;49.388;11.350;2023-03-03T06:59:59;25.77;;;13.33;;
11139;SDS011;5624;49.388;11.350;2023-03-03T07:02:40;19.80;;;12.90;;
11139;SDS011;5624;49.388;11.350;2023-03-03T07:05:08;24.73;;;13.37;;
11139;SDS011;5624;49.388;11.350;2023-03-03T07:07:40;21.63;;;12.80;;
11139;SDS011;5624;49.388;11.350;2023-03-03T07:10:06;18.87;;;12.40;;
11139;SDS011;5624;49.388;11.350;2023-03-03T07:12:47;21.47;;;12.63;;
11139;SDS011;5624;49.388;11.350;2023-03-03T07:15:15;20.40;;;14.17;;
11139;SDS011;5624;49.388;11.350;2023-03-03T07:17:45;20.27;;;13.33;;
11139;SDS011;5624;49.388;11.350;2023-03-03T07:20:22;24.03;;;16.43;;
11139;SDS011;5624;49.388;11.350;2023-03-03T07:22:52;32.83;;;16.33;;
11139;SDS011;5624;49.388;11.350;2023-03-03T07:30:48;24.50;;;15.73;;
11139;SDS011;5624;49.388;11.350;2023-03-03T07:33:18;27.63;;;16.63;;
11139;SDS011;5624;49.388;11.350;2023-03-03T07:35:56;22.50;;;14.93;;
11139;SDS011;5624;49.388;11.350;2023-03-03T07:41:18;27.17;;;16.90;;
11139;SDS011;5624;49.388;11.350;2023-03-03T07:43:54;26.60;;;16.47;;
11139;SDS011;5624;49.388;11.350;2023-03-03T07:49:12;26.07;;;14.30;;
11139;SDS011;5624;49.388;11.350;2023-03-03T07:51:43;33.57;;;16.37;;
11139;SDS011;5624;49.388;11.350;2023-03-03T07:56:39;24.97;;;15.87;;
11139;SDS011;5624;49.388;11.350;2023-03-03T07:59:12;28.87;;;16.77;;
11139;SDS011;5624;49.388;11.350;2023-03-03T08:01:45;26.57;;;16.47;;
11139;SDS011;5624;49.388;11.350;2023-03-03T08:06:43;21.77;;;14.63;;
11139;SDS011;5624;49.388;11.350;2023-03-03T08:11:52;23.23;;;15.97;;
11139;SDS011;5624;49.388;11.350;2023-03-03T08:14:26;22.87;;;15.97;;
11139;SDS011;5624;49.388;11.350;2023-03-03T08:17:00;19.80;;;15.10;;
11139;SDS011;5624;49.388;11.350;2023-03-03T08:19:26;23.97;;;14.40;;
11139;SDS011;5624;49.388;11.350;2023-03-03T08:22:01;19.63;;;14.60;;
11139;SDS011;5624;49.388;11.350;2023-03-03T08:24:37;21.00;;;14.53;;
11139;SDS011;5624;49.388;11.350;2023-03-03T08:27:02;22.33;;;15.37;;
11139;SDS011;5624;49.388;11.350;2023-03-03T08:29:28;20.33;;;14.53;;
11139;SDS011;5624;49.388;11.350;2023-03-03T08:31:53;20.13;;;15.13;;
11139;SDS011;5624;49.388;11.350;2023-03-03T08:34:19;22.17;;;14.70;;
11139;SDS011;5624;49.388;11.350;2023-03-03T08:36:44;20.97;;;15.00;;
11139;SDS011;5624;49.388;11.350;2023-03-03T08:39:11;22.07;;;15.50;;
11139;SDS011;5624;49.388;11.350;2023-03-03T08:41:37;23.60;;;16.20;;
11139;SDS011;5624;49.388;11.350;2023-03-03T08:44:04;21.67;;;14.67;;
11139;SDS011;5624;49.388;11.350;2023-03-03T08:46:30;22.70;;;14.63;;
11139;SDS011;5624;49.388;11.350;2023-03-03T08:48:55;20.77;;;14.37;;
11139;SDS011;5624;49.388;11.350;2023-03-03T08:51:21;22.43;;;14.23;;
11139;SDS011;5624;49.388;11.350;2023-03-03T08:53:47;23.63;;;15.50;;
11139;SDS011;5624;49.388;11.350;2023-03-03T08:56:12;23.60;;;14.83;;
11139;SDS011;5624;49.388;11.350;2023-03-03T08:58:38;24.97;;;14.70;;
11139;SDS011;5624;49.388;11.350;2023-03-03T09:01:06;20.17;;;14.73;;
11139;SDS011;5624;49.388;11.350;2023-03-03T09:03:31;21.50;;;14.43;;
11139;SDS011;5624;49.388;11.350;2023-03-03T09:05:57;24.13;;;14.53;;
11139;SDS011;5624;49.388;11.350;2023-03-03T09:08:22;23.37;;;15.07;;
11139;SDS011;5624;49.388;11.350;2023-03-03T09:10:48;22.73;;;14.67;;
11139;SDS011;5624;49.388;11.350;2023-03-03T09:13:15;21.13;;;14.77;;
11139;SDS011;5624;49.388;11.350;2023-03-03T09:15:42;23.63;;;14.80;;
11139;SDS011;5624;49.388;11.350;2023-03-03T09:18:24;22.00;;;14.80;;
11139;SDS011;5624;49.388;11.350;2023-03-03T09:21:05;26.83;;;15.33;;
11139;SDS011;5624;49.388;11.350;2023-03-03T09:23:43;23.37;;;14.30;;
11139;SDS011;5624;49.388;11.350;2023-03-03T09:28:51;22.53;;;13.30;;
11139;SDS011;5624;49.388;11.350;2023-03-03T09:31:38;21.83;;;13.13;;
11139;SDS011;5624;49.388;11.350;2023-03-03T09:36:40;22.40;;;13.40;;
11139;SDS011;5624;49.388;11.350;2023-03-03T09:53:05;24.77;;;15.10;;
11139;SDS011;5624;49.388;11.350;2023-03-03T10:04:07;21.20;;;14.73;;
11139;SDS011;5624;49.388;11.350;2023-03-03T10:12:07;23.47;;;15.37;;
11139;SDS011;5624;49.388;11.350;2023-03-03T10:26:04;21.47;;;14.87;;
11139;SDS011;5624;49.388;11.350;2023-03-03T10:29:04;21.83;;;14.73;;
11139;SDS011;5624;49.388;11.350;2023-03-03T10:56:11;21.87;;;16.20;;
11139;SDS011;5624;49.388;11.350;2023-03-03T10:59:02;21.53;;;15.10;;
11139;SDS011;5624;49.388;11.350;2023-03-03T11:06:58;24.30;;;15.87;;
11139;SDS011;5624;49.388;11.350;2023-03-03T11:09:55;21.07;;;15.20;;
11139;SDS011;5624;49.388;11.350;2023-03-03T11:12:47;20.10;;;14.60;;
11139;SDS011;5624;49.388;11.350;2023-03-03T11:28:58;20.03;;;14.97;;
11139;SDS011;5624;49.388;11.350;2023-03-03T11:36:55;24.97;;;16.20;;
11139;SDS011;5624;49.388;11.350;2023-03-03T11:39:25;21.83;;;15.10;;
11139;SDS011;5624;49.388;11.350;2023-03-03T11:49:35;22.47;;;15.37;;
11139;SDS011;5624;49.388;11.350;2023-03-03T11:55:00;19.30;;;15.33;;
11139;SDS011;5624;49.388;11.350;2023-03-03T11:57:41;19.33;;;14.70;;
11139;SDS011;5624;49.388;11.350;2023-03-03T12:03:10;20.73;;;14.73;;
11139;SDS011;5624;49.388;11.350;2023-03-03T12:22:49;21.47;;;14.73;;
11139;SDS011;5624;49.388;11.350;2023-03-03T12:25:19;22.00;;;14.23;;
11139;SDS011;5624;49.388;11.350;2023-03-03T12:30:38;20.43;;;15.23;;
11139;SDS011;5624;49.388;11.350;2023-03-03T12:33:22;20.73;;;14.50;;
11139;SDS011;5624;49.388;11.350;2023-03-03T12:41:39;22.03;;;14.87;;
11139;SDS011;5624;49.388;11.350;2023-03-03T12:47:05;20.37;;;15.07;;
11139;SDS011;5624;49.388;11.350;2023-03-03T13:04:18;20.03;;;14.73;;
11139;SDS011;5624;49.388;11.350;2023-03-03T13:12:34;19.37;;;13.87;;
11139;SDS011;5624;49.388;11.350;2023-03-03T13:20:39;22.70;;;14.60;;
11139;SDS011;5624;49.388;11.350;2023-03-03T13:28:41;18.53;;;13.77;;
11139;SDS011;5624;49.388;11.350;2023-03-03T13:31:20;21.23;;;14.70;;
11139;SDS011;5624;49.388;11.350;2023-03-03T13:33:54;20.07;;;14.47;;
11139;SDS011;5624;49.388;11.350;2023-03-03T13:36:24;18.77;;;13.27;;
11139;SDS011;5624;49.388;11.350;2023-03-03T13:38:56;17.33;;;12.53;;
11139;SDS011;5624;49.388;11.350;2023-03-03T13:41:48;19.50;;;12.80;;
11139;SDS011;5624;49.388;11.350;2023-03-03T13:44:24;18.30;;;12.83;;
11139;SDS011;5624;49.388;11.350;2023-03-03T13:52:28;19.43;;;12.30;;
11139;SDS011;5624;49.388;11.350;2023-03-03T14:02:56;18.70;;;13.13;;
11139;SDS011;5624;49.388;11.350;2023-03-03T14:05:35;18.40;;;12.47;;
11139;SDS011;5624;49.388;11.350;2023-03-03T14:15:54;21.13;;;12.77;;
11139;SDS011;5624;49.388;11.350;2023-03-03T14:18:38;18.63;;;13.20;;
11139;SDS011;5624;49.388;11.350;2023-03-03T14:21:15;17.47;;;12.37;;
11139;SDS011;5624;49.388;11.350;2023-03-03T14:24:29;18.70;;;12.17;;
11139;SDS011;5624;49.388;11.350;2023-03-03T14:26:49;19.80;;;12.77;;
11139;SDS011;5624;49.388;11.350;2023-03-03T14:29:18;19.57;;;12.87;;
11139;SDS011;5624;49.388;11.350;2023-03-03T14:31:51;19.13;;;13.53;;
11139;SDS011;5624;49.388;11.350;2023-03-03T14:37:24;19.27;;;13.57;;
11139;SDS011;5624;49.388;11.350;2023-03-03T14:40:18;17.73;;;12.30;;
11139;SDS011;5624;49.388;11.350;2023-03-03T14:42:54;16.97;;;12.37;;
11139;SDS011;5624;49.388;11.350;2023-03-03T14:45:34;20.90;;;12.47;;
11139;SDS011;5624;49.388;11.350;2023-03-03T14:50:40;19.00;;;12.60;;
11139;SDS011;5624;49.388;11.350;2023-03-03T14:55:44;15.80;;;12.10;;
11139;SDS011;5624;49.388;11.350;2023-03-03T14:58:25;18.03;;;11.70;;
11139;SDS011;5624;49.388;11.350;2023-03-03T15:06:30;18.87;;;11.83;;
11139;SDS011;5624;49.388;11.350;2023-03-03T15:11:55;16.60;;;11.00;;
11139;SDS011;5624;49.388;11.350;2023-03-03T15:14:27;18.10;;;11.63;;
11139;SDS011;5624;49.388;11.350;2023-03-03T15:17:12;17.63;;;11.17;;
11139;SDS011;5624;49.388;11.350;2023-03-03T15:19:55;18.97;;;11.83;;
11139;SDS011;5624;49.388;11.350;2023-03-03T15:28:04;17.17;;;11.70;;
11139;SDS011;5624;49.388;11.350;2023-03-03T15:33:35;17.30;;;11.30;;
11139;SDS011;5624;49.388;11.350;2023-03-03T15:36:25;15.57;;;10.80;;
11139;SDS011;5624;49.388;11.350;2023-03-03T15:44:21;16.27;;;10.20;;
11139;SDS011;5624;49.388;11.350;2023-03-03T15:55:12;16.03;;;10.23;;
11139;SDS011;5624;49.388;11.350;2023-03-03T16:03:37;14.10;;;8.60;;
11139;SDS011;5624;49.388;11.350;2023-03-03T16:12:20;18.00;;;8.50;;
11139;SDS011;5624;49.388;11.350;2023-03-03T16:15:44;15.53;;;7.93;;
11139;SDS011;5624;49.388;11.350;2023-03-03T16:18:47;11.70;;;7.57;;
11139;SDS011;5624;49.388;11.350;2023-03-03T16:24:31;12.13;;;7.37;;
11139;SDS011;5624;49.388;11.350;2023-03-03T16:27:18;13.00;;;7.80;;
11139;SDS011;5624;49.388;11.350;2023-03-03T16:30:39;10.47;;;7.47;;
11139;SDS011;5624;49.388;11.350;2023-03-03T16:37:55;13.40;;;7.73;;
11139;SDS011;5624;49.388;11.350;2023-03-03T16:40:23;11.40;;;7.10;;
11139;SDS011;5624;49.388;11.350;2023-03-03T16:42:59;13.57;;;7.57;;
11139;SDS011;5624;49.388;11.350;2023-03-03T16:45:46;11.77;;;6.57;;
11139;SDS011;5624;49.388;11.350;2023-03-03T16:50:59;12.87;;;7.03;;
11139;SDS011;5624;49.388;11.350;2023-03-03T16:53:50;10.70;;;6.57;;
11139;SDS011;5624;49.388;11.350;2023-03-03T16:56:42;12.53;;;7.10;;
11139;SDS011;5624;49.388;11.350;2023-03-03T16:59:19;11.27;;;6.50;;
11139;SDS011;5624;49.388;11.350;2023-03-03T17:02:38;12.03;;;6.23;;
11139;SDS011;5624;49.388;11.350;2023-03-03T17:04:48;9.83;;;5.93;;
11139;SDS011;5624;49.388;11.350;2023-03-03T17:10:17;12.30;;;7.07;;
11139;SDS011;5624;49.388;11.350;2023-03-03T17:12:52;13.00;;;6.43;;
11139;SDS011;5624;49.388;11.350;2023-03-03T17:45:12;11.30;;;6.33;;
11139;SDS011;5624;49.388;11.350;2023-03-03T17:50:18;12.60;;;6.90;;
11139;SDS011;5624;49.388;11.350;2023-03-03T17:53:40;9.97;;;6.00;;
11139;SDS011;5624;49.388;11.350;2023-03-03T18:04:06;11.83;;;6.13;;
11139;SDS011;5624;49.388;11.350;2023-03-03T18:20:33;11.17;;;6.03;;
11139;SDS011;5624;49.388;11.350;2023-03-03T18:25:58;10.67;;;6.07;;
11139;SDS011;5624;49.388;11.350;2023-03-03T18:28:49;13.63;;;6.10;;
11139;SDS011;5624;49.388;11.350;2023-03-03T18:31:43;12.73;;;8.30;;
11139;SDS011;5624;49.388;11.350;2023-03-03T18:39:46;11.67;;;6.23;;
11139;SDS011;5624;49.388;11.350;2023-03-03T18:44:40;11.87;;;7.43;;
11139;SDS011;5624;49.388;11.350;2023-03-03T18:47:06;12.80;;;6.97;;
11139;SDS011;5624;49.388;11.350;2023-03-03T18:52:39;11.17;;;6.23;;
11139;SDS011;5624;49.388;11.350;2023-03-03T18:55:40;10.30;;;5.90;;
11139;SDS011;5624;49.388;11.350;2023-03-03T19:06:11;8.23;;;5.10;;
11139;SDS011;5624;49.388;11.350;2023-03-03T19:12:14;9.93;;;5.83;;
11139;SDS011;5624;49.388;11.350;2023-03-03T19:14:47;9.67;;;5.43;;
11139;SDS011;5624;49.388;11.350;2023-03-03T19:22:48;11.03;;;6.67;;
11139;SDS011;5624;49.388;11.350;2023-03-03T19:25:25;11.43;;;5.93;;
11139;SDS011;5624;49.388;11.350;2023-03-03T19:30:36;10.17;;;6.60;;
11139;SDS011;5624;49.388;11.350;2023-03-03T19:35:53;10.83;;;5.80;;
11139;SDS011;5624;49.388;11.350;2023-03-03T19:41:58;14.93;;;11.30;;
11139;SDS011;5624;49.388;11.350;2023-03-03T19:47:43;18.50;;;13.40;;
11139;SDS011;5624;49.388;11.350;2023-03-03T20:05:18;11.23;;;6.43;;
11139;SDS011;5624;49.388;11.350;2023-03-03T20:16:09;13.27;;;7.63;;
11139;SDS011;5624;49.388;11.350;2023-03-03T20:18:42;14.30;;;8.17;;
11139;SDS011;5624;49.388;11.350;2023-03-03T20:27:05;15.87;;;8.00;;
11139;SDS011;5624;49.388;11.350;2023-03-03T20:40:41;12.27;;;8.10;;
11139;SDS011;5624;49.388;11.350;2023-03-03T20:46:33;14.93;;;8.27;;
11139;SDS011;5624;49.388;11.350;2023-03-03T20:51:42;14.33;;;7.47;;
11139;SDS011;5624;49.388;11.350;2023-03-03T20:54:44;13.80;;;8.17;;
11139;SDS011;5624;49.388;11.350;2023-03-03T20:57:31;13.50;;;9.47;;
11139;SDS011;5624;49.388;11.350;2023-03-03T21:00:31;17.47;;;11.97;;
11139;SDS011;5624;49.388;11.350;2023-03-03T21:06:05;14.10;;;9.10;;
11139;SDS011;5624;49.388;11.350;2023-03-03T21:08:54;16.17;;;9.83;;
11139;SDS011;5624;49.388;11.350;2023-03-03T21:14:20;15.40;;;8.90;;
11139;SDS011;5624;49.388;11.350;2023-03-03T21:16:49;14.27;;;9.40;;
11139;SDS011;5624;49.388;11.350;2023-03-03T21:19:26;16.47;;;9.77;;
11139;SDS011;5624;49.388;11.350;2023-03-03T21:21:57;14.47;;;8.57;;
11139;SDS011;5624;49.388;11.350;2023-03-03T21:24:44;15.30;;;10.50;;
11139;SDS011;5624;49.388;11.350;2023-03-03T21:27:26;14.60;;;8.30;;
11139;SDS011;5624;49.388;11.350;2023-03-03T21:30:08;14.17;;;8.27;;
11139;SDS011;5624;49.388;11.350;2023-03-03T21:35:03;14.03;;;8.80;;
11139;SDS011;5624;49.388;11.350;2023-03-03T21:37:50;17.33;;;9.13;;
11139;SDS011;5624;49.388;11.350;2023-03-03T21:40:24;15.67;;;9.40;;
11139;SDS011;5624;49.388;11.350;2023-03-03T21:42:52;14.93;;;10.90;;
11139;SDS011;5624;49.388;11.350;2023-03-03T21:45:23;16.70;;;10.03;;
11139;SDS011;5624;49.388;11.350;2023-03-03T21:47:50;12.77;;;9.07;;
11139;SDS011;5624;49.388;11.350;2023-03-03T21:50:18;15.47;;;10.07;;
11139;SDS011;5624;49.388;11.350;2023-03-03T21:52:45;15.23;;;10.63;;
11139;SDS011;5624;49.388;11.350;2023-03-03T21:55:11;12.63;;;7.50;;
11139;SDS011;5624;49.388;11.350;2023-03-03T21:57:37;11.63;;;7.53;;
11139;SDS011;5624;49.388;11.350;2023-03-03T22:00:04;13.77;;;7.60;;
11139;SDS011;5624;49.388;11.350;2023-03-03T22:02:31;16.80;;;9.60;;
11139;SDS011;5624;49.388;11.350;2023-03-03T22:04:56;17.07;;;9.13;;
11139;SDS011;5624;49.388;11.350;2023-03-03T22:07:22;16.77;;;10.07;;
11139;SDS011;5624;49.388;11.350;2023-03-03T22:09:47;23.17;;;14.43;;
11139;SDS011;5624;49.388;11.350;2023-03-03T22:12:13;25.57;;;14.53;;